map of UZC home
UZC - Airport
Location
City:  Uzice, Serbia
Name:Uzice-Ponikve
ICAO:LYUZ
IATA:UZC

Details
Type:Airport (Aerodrome, Airfield)
Latitude:4353'56"N (43.898889)
Longitude:1941'51"E (19.697500)
Elevation:2966 ft (904 m)
Variation:4.48E (WMM2015 magnetic declination)
0.11 annual change
Runways:1
Longest:10499 × 148 ft (3200 × 45 m), paved

Time
Time Zone:UTC+1 (DST+2)
Local Time:

Weather
METAR:LYUZ 220800Z 30006KT 4000 -SN BR OVC003 M05/M05 Q1012 R10///////
TAF:LYUZ 220500Z 2206/2306 32015KT 9999 BKN010 TXM02/2212Z TNM06/2305Z
TEMPO 2206/2209 4000 -SN OVC002
BECMG 2216/2218 26008KT

Related Locations
Nearby:
Farthest:CHT: 11635 mi / 18724 km
Waitangi [Tuuta], CIT, NZ

Find:

   beyond  
but within

Other Information
Maps:
NOTAMs:
Links:
Sources:

  
flag of Serbia   

Sectional Chart

Flight Planning
at skyvector.com

Satellite Image

Google Maps Satellite view

 

Copyright © 2004-2018 Karl L. Swartz. All rights reserved.
The Great Circle Mapper name and logo are trademarks of the Great Circle Mapper.
All other trademarks mentioned herein belong to their respective owners.
Please see credits for attibutions and further copyright information.

  Follow gcmap on Facebook Follow gcmap on Twitter Follow gcmap on Google+ GCmap on LinkedIn

hCard Microformat

Geo Microformat